Time;durP1;ratioP1;P1;durP2;ratioP2;P2;SDS_P1;SDS_P2;PMS_P1;PMS_P2;Temp;Humidity;BMP_temperature;BMP_pressure;BME280_temperature;BME280_humidity;BME280_pressure;Samples;Min_cycle;Max_cycle;Signal;HPM_P1;HPM_P2
2022/01/04 00:02:01;;;;;;;0.40;0.30;;;;;;;7.66;100.00;99756.03;5073746;28;20491;-74
2022/01/04 00:04:29;;;;;;;0.40;0.23;;;;;;;7.66;100.00;99745.25;5074091;28;20857;-72
2022/01/04 00:06:57;;;;;;;0.40;0.30;;;;;;;7.68;100.00;99738.50;5074417;28;20457;-70
2022/01/04 00:09:23;;;;;;;0.40;0.30;;;;;;;7.68;100.00;99726.91;5074261;28;20445;-71
2022/01/04 00:13:20;;;;;;;0.40;0.30;;;;;;;7.72;100.00;99728.69;5074187;28;20445;-71
2022/01/04 00:14:44;;;;;;;0.40;0.20;;;;;;;7.73;100.00;99727.59;5073643;28;20485;-75
2022/01/04 00:17:11;;;;;;;0.40;0.30;;;;;;;7.75;99.83;99717.31;5074097;28;20441;-74
2022/01/04 00:19:38;;;;;;;0.40;0.30;;;;;;;7.74;99.82;99713.00;5074051;28;20445;-74
2022/01/04 00:22:08;;;;;;;0.40;0.30;;;;;;;7.77;99.91;99717.00;5073961;28;20445;-73
2022/01/04 00:24:34;;;;;;;0.40;0.30;;;;;;;7.79;99.20;99715.63;5074251;28;20444;-74
2022/01/04 00:27:01;;;;;;;0.40;0.30;;;;;;;7.82;99.38;99711.50;5073946;28;20438;-73
2022/01/04 00:29:27;;;;;;;0.40;0.30;;;;;;;7.84;99.30;99712.00;5073852;28;20449;-73
2022/01/04 00:31:54;;;;;;;0.40;0.30;;;;;;;7.88;98.72;99704.09;5073441;28;20985;-73
2022/01/04 00:34:20;;;;;;;0.40;0.30;;;;;;;7.88;98.54;99704.09;5073615;28;20498;-74
2022/01/04 00:36:48;;;;;;;0.40;0.30;;;;;;;7.89;98.46;99703.00;5073758;28;20441;-74
2022/01/04 00:39:14;;;;;;;0.40;0.23;;;;;;;7.91;97.92;99698.88;5073744;28;20449;-73
2022/01/04 00:41:41;;;;;;;0.40;0.30;;;;;;;7.86;98.47;99687.44;5073707;28;20442;-74
2022/01/04 00:44:07;;;;;;;0.40;0.20;;;;;;;7.88;98.87;99687.91;5073537;28;20827;-73
2022/01/04 00:46:34;;;;;;;0.40;0.30;;;;;;;7.86;98.88;99687.44;5073295;28;20938;-73
2022/01/04 00:49:11;;;;;;;0.40;0.30;;;;;;;7.87;98.32;99676.31;5073512;28;20437;-74
2022/01/04 00:51:39;;;;;;;0.40;0.30;;;;;;;7.90;97.98;99672.25;5073810;28;20422;-74
2022/01/04 00:54:06;;;;;;;0.40;0.30;;;;;;;7.82;98.10;99669.16;5073319;28;20495;-73
2022/01/04 00:56:33;;;;;;;0.40;0.30;;;;;;;7.82;99.09;99671.06;5073137;28;20958;-73
2022/01/04 00:59:00;;;;;;;0.40;0.30;;;;;;;7.83;98.68;99673.47;5073460;28;20449;-73
2022/01/04 01:01:27;;;;;;;0.40;0.30;;;;;;;7.83;98.29;99657.28;5073402;28;20441;-73
2022/01/04 01:03:53;;;;;;;0.40;0.30;;;;;;;7.82;98.12;99647.59;5073227;28;20457;-74
2022/01/04 01:06:20;;;;;;;0.40;0.30;;;;;;;7.79;98.82;99656.31;5073279;28;20441;-73
2022/01/04 01:08:47;;;;;;;0.40;0.30;;;;;;;7.81;98.62;99659.47;5073208;28;20450;-73
2022/01/04 01:11:16;;;;;;;0.40;0.30;;;;;;;7.81;98.21;99658.69;5073275;28;20438;-75
2022/01/04 01:13:43;;;;;;;0.40;0.30;;;;;;;7.82;98.66;99652.19;5072292;28;20496;-75
2022/01/04 01:16:10;;;;;;;0.40;0.23;;;;;;;7.83;98.20;99646.50;5073172;28;20437;-75
2022/01/04 01:18:37;;;;;;;0.40;0.30;;;;;;;7.84;97.92;99639.22;5072893;28;20957;-74
2022/01/04 01:21:05;;;;;;;0.40;0.30;;;;;;;7.81;97.96;99640.59;5073156;28;20444;-74
2022/01/04 01:23:32;;;;;;;0.40;0.30;;;;;;;7.80;98.77;99639.03;5073097;28;20461;-74
2022/01/04 01:25:59;;;;;;;0.40;0.30;;;;;;;7.82;98.20;99644.91;5072729;28;20970;-75
2022/01/04 01:28:27;;;;;;;0.40;0.30;;;;;;;7.80;97.99;99632.84;5072830;28;20996;-73
2022/01/04 01:30:54;;;;;;;0.40;0.30;;;;;;;7.78;97.83;99633.13;5073070;28;20446;-74
2022/01/04 01:33:20;;;;;;;0.40;0.20;;;;;;;7.75;99.03;99628.38;5072917;28;20492;-73
2022/01/04 01:35:47;;;;;;;0.40;0.30;;;;;;;7.76;98.45;99624.56;5072724;28;20957;-73
2022/01/04 01:38:14;;;;;;;0.40;0.30;;;;;;;7.75;98.24;99612.19;5072997;28;20441;-72
2022/01/04 01:40:41;;;;;;;0.40;0.27;;;;;;;7.74;98.76;99612.47;5073009;28;20437;-72
2022/01/04 01:43:08;;;;;;;0.40;0.30;;;;;;;7.73;98.85;99603.59;5073118;28;20465;-72
2022/01/04 01:45:36;;;;;;;0.40;0.30;;;;;;;7.75;98.93;99606.81;5072658;28;20935;-72
2022/01/04 01:48:02;;;;;;;0.40;0.30;;;;;;;7.78;98.77;99605.38;5072868;28;20437;-72
2022/01/04 01:50:29;;;;;;;0.40;0.30;;;;;;;7.76;98.84;99594.91;5072563;28;20942;-73
2022/01/04 01:52:56;;;;;;;0.40;0.30;;;;;;;7.77;98.68;99593.00;5072796;28;20480;-72
2022/01/04 01:55:24;;;;;;;0.40;0.30;;;;;;;7.73;98.46;99590.13;5072393;28;21009;-72
2022/01/04 01:57:52;;;;;;;0.40;0.30;;;;;;;7.68;99.06;99581.38;5072804;28;20498;-72
2022/01/04 02:00:20;;;;;;;0.40;0.30;;;;;;;7.68;98.69;99582.16;5072813;28;20487;-72
2022/01/04 02:02:48;;;;;;;0.40;0.27;;;;;;;7.66;98.73;99579.00;5072690;28;20465;-72
2022/01/04 02:05:15;;;;;;;0.40;0.30;;;;;;;7.65;98.94;99580.06;5072792;28;20508;-72
2022/01/04 02:07:43;;;;;;;0.40;0.30;;;;;;;7.67;99.04;99566.31;5072744;28;20441;-72
2022/01/04 02:10:11;;;;;;;0.40;0.30;;;;;;;7.66;99.63;99562.81;5072696;28;20437;-72
2022/01/04 02:12:39;;;;;;;0.40;0.20;;;;;;;7.63;99.09;99558.03;5072595;28;20518;-72
2022/01/04 02:15:09;;;;;;;0.40;0.30;;;;;;;7.61;99.16;99544.06;5072568;28;20484;-72
2022/01/04 02:17:36;;;;;;;0.40;0.30;;;;;;;7.57;98.80;99553.88;5072348;28;20817;-72
2022/01/04 02:20:05;;;;;;;0.40;0.30;;;;;;;7.55;98.77;99539.91;5072611;28;20441;-72
2022/01/04 02:22:32;;;;;;;0.40;0.30;;;;;;;7.52;99.21;99540.50;5072504;28;20469;-72
2022/01/04 02:24:59;;;;;;;0.40;0.30;;;;;;;7.53;99.77;99534.81;5072843;28;20449;-73
2022/01/04 02:27:25;;;;;;;0.40;0.30;;;;;;;7.54;100.00;99543.72;5076228;28;20437;-72
2022/01/04 02:29:52;;;;;;;0.40;0.30;;;;;;;7.54;100.00;99532.94;5075895;28;20965;-72
2022/01/04 02:32:19;;;;;;;0.40;0.30;;;;;;;7.54;100.00;99535.63;5075793;28;20464;-72
2022/01/04 02:34:48;;;;;;;0.40;0.20;;;;;;;7.55;100.00;99527.22;5075817;28;20522;-72
2022/01/04 02:37:20;;;;;;;0.40;0.30;;;;;;;7.55;99.96;99518.34;5076097;28;20460;-72
2022/01/04 02:39:47;;;;;;;0.40;0.30;;;;;;;7.49;99.54;99511.50;5076022;28;20486;-72
2022/01/04 02:42:14;;;;;;;0.57;0.57;;;;;;;7.48;100.00;99509.88;5075896;28;20452;-73
2022/01/04 02:44:40;;;;;;;0.40;0.30;;;;;;;7.46;99.92;99501.31;5075920;28;20445;-73
2022/01/04 02:47:07;;;;;;;0.40;0.30;;;;;;;7.46;99.80;99504.81;5075541;28;20873;-72
2022/01/04 02:49:33;;;;;;;0.40;0.30;;;;;;;7.42;100.00;99498.44;5076037;28;20453;-73
2022/01/04 02:52:00;;;;;;;0.50;0.40;;;;;;;7.42;99.83;99498.44;5075773;28;20429;-72
2022/01/04 02:54:28;;;;;;;0.40;0.30;;;;;;;7.39;99.96;99499.06;5075351;28;21036;-72
2022/01/04 02:56:54;;;;;;;0.40;0.30;;;;;;;7.38;100.00;99499.38;5075746;28;20845;-72
2022/01/04 02:59:21;;;;;;;0.40;0.30;;;;;;;7.34;100.00;99497.28;5075676;28;20445;-72
2022/01/04 03:01:47;;;;;;;0.40;0.30;;;;;;;7.36;100.00;99498.88;5075649;28;20449;-72
2022/01/04 03:04:14;;;;;;;0.40;0.30;;;;;;;7.35;100.00;99495.41;5075573;28;20457;-72
2022/01/04 03:06:40;;;;;;;0.40;0.30;;;;;;;7.33;100.00;99495.69;5075559;28;20495;-72
2022/01/04 03:09:07;;;;;;;0.40;0.30;;;;;;;7.38;100.00;99494.78;5075163;28;21009;-72
2022/01/04 03:11:35;;;;;;;0.40;0.30;;;;;;;7.42;100.00;99493.06;5075772;28;20453;-72
2022/01/04 03:14:02;;;;;;;0.40;0.30;;;;;;;7.44;100.00;99490.06;5075215;28;20452;-72
2022/01/04 03:16:29;;;;;;;0.40;0.30;;;;;;;7.45;100.00;99491.66;5075375;28;20445;-72
2022/01/04 03:19:06;;;;;;;0.40;0.30;;;;;;;7.48;100.00;99481.06;5075303;28;20445;-72
2022/01/04 03:21:33;;;;;;;0.40;0.30;;;;;;;7.47;100.00;99474.06;5075342;28;20491;-72
2022/01/04 03:24:00;;;;;;;0.40;0.20;;;;;;;7.49;100.00;99471.88;5075096;28;20466;-73
2022/01/04 03:26:27;;;;;;;0.40;0.30;;;;;;;7.49;100.00;99465.69;5075167;28;20441;-72
2022/01/04 03:28:55;;;;;;;0.40;0.30;;;;;;;7.45;100.00;99456.63;5075095;28;20449;-72
2022/01/04 03:31:21;;;;;;;0.40;0.30;;;;;;;7.46;100.00;99463.63;5075039;28;20449;-72
2022/01/04 03:33:48;;;;;;;0.40;0.30;;;;;;;7.47;100.00;99452.50;5074846;28;20469;-73
2022/01/04 03:36:15;;;;;;;0.40;0.30;;;;;;;7.40;100.00;99454.88;5074553;28;20477;-73
2022/01/04 03:38:42;;;;;;;0.40;0.30;;;;;;;7.40;100.00;99457.56;5074020;28;20484;-73
2022/01/04 03:41:09;;;;;;;0.40;0.30;;;;;;;7.38;100.00;99446.28;5074866;28;20526;-72
2022/01/04 03:43:37;;;;;;;0.40;0.30;;;;;;;7.39;100.00;99444.38;5074721;28;20540;-73
2022/01/04 03:46:06;;;;;;;0.40;0.30;;;;;;;7.36;100.00;99435.03;5074770;28;20469;-72
2022/01/04 03:48:33;;;;;;;0.40;0.30;;;;;;;7.36;100.00;99426.94;5074416;28;21001;-73
2022/01/04 03:50:59;;;;;;;0.40;0.30;;;;;;;7.33;100.00;99428.34;5074688;28;20450;-70
2022/01/04 03:53:26;;;;;;;0.40;0.30;;;;;;;7.25;100.00;99426.41;5074205;28;20809;-71
2022/01/04 03:55:52;;;;;;;0.40;0.30;;;;;;;7.27;100.00;99416.13;5074475;28;20492;-75
2022/01/04 03:58:19;;;;;;;0.40;0.30;;;;;;;7.29;100.00;99419.28;5074552;28;20475;-74
2022/01/04 04:00:45;;;;;;;0.40;0.30;;;;;;;7.32;100.00;99413.31;5074612;28;20448;-75
2022/01/04 04:03:13;;;;;;;0.40;0.27;;;;;;;7.30;100.00;99415.53;5073995;28;20860;-75
2022/01/04 04:05:39;;;;;;;0.40;0.30;;;;;;;7.33;100.00;99406.00;5074368;28;20449;-76
2022/01/04 04:08:06;;;;;;;0.40;0.27;;;;;;;7.36;100.00;99399.22;5074313;28;20446;-75
2022/01/04 04:10:32;;;;;;;0.40;0.30;;;;;;;7.37;100.00;99393.53;5074289;28;20453;-75
2022/01/04 04:12:59;;;;;;;0.40;0.30;;;;;;;7.36;100.00;99391.16;5073763;28;20477;-75
2022/01/04 04:15:29;;;;;;;0.40;0.20;;;;;;;7.38;100.00;99399.69;5074722;28;20998;-75
2022/01/04 04:17:55;;;;;;;0.40;0.30;;;;;;;7.34;100.00;99389.53;5074323;28;20445;-75
2022/01/04 04:20:23;;;;;;;0.40;0.30;;;;;;;7.32;100.00;99391.75;5074365;28;20438;-75
2022/01/04 04:22:49;;;;;;;0.40;0.30;;;;;;;7.28;100.00;99389.97;5073606;28;20993;-75
2022/01/04 04:25:16;;;;;;;0.40;0.30;;;;;;;7.24;100.00;99387.09;5073671;28;20436;-75
2022/01/04 04:27:42;;;;;;;0.40;0.30;;;;;;;7.19;100.00;99389.13;5073931;28;20457;-75
2022/01/04 04:30:11;;;;;;;0.40;0.30;;;;;;;7.14;100.00;99390.06;5073857;28;20859;-75
2022/01/04 04:32:37;;;;;;;0.40;0.30;;;;;;;7.15;100.00;99378.19;5073346;28;21041;-75
2022/01/04 04:35:05;;;;;;;0.40;0.30;;;;;;;7.16;100.00;99379.78;5073745;28;20504;-75
2022/01/04 04:37:32;;;;;;;0.40;0.30;;;;;;;7.07;100.00;99368.16;5073731;28;20497;-75
2022/01/04 04:39:59;;;;;;;0.40;0.30;;;;;;;6.89;100.00;99367.25;5073671;28;20438;-75
2022/01/04 04:42:25;;;;;;;0.40;0.30;;;;;;;6.91;100.00;99361.56;5073621;28;20457;-76
2022/01/04 04:44:52;;;;;;;0.40;0.30;;;;;;;6.87;100.00;99368.66;5073661;28;20448;-76
2022/01/04 04:47:18;;;;;;;0.40;0.30;;;;;;;6.80;100.00;99364.50;5073596;28;20438;-76
2022/01/04 04:49:44;;;;;;;0.40;0.30;;;;;;;6.77;100.00;99364.31;5073001;28;20849;-76
2022/01/04 04:52:11;;;;;;;0.40;0.30;;;;;;;6.72;100.00;99351.75;5073166;28;20441;-76
2022/01/04 04:54:39;;;;;;;0.40;0.30;;;;;;;6.70;100.00;99353.19;5073447;28;20441;-76
2022/01/04 04:57:06;;;;;;;0.40;0.30;;;;;;;6.67;100.00;99349.19;5073436;28;20441;-76
2022/01/04 04:59:32;;;;;;;0.40;0.30;;;;;;;6.63;100.00;99344.75;5073426;28;20444;-76
2022/01/04 05:01:58;;;;;;;0.40;0.30;;;;;;;6.50;100.00;99338.31;5073426;28;20444;-76
2022/01/04 05:04:25;;;;;;;0.40;0.30;;;;;;;6.37;100.00;99334.56;5073309;28;20461;-76
2022/01/04 05:06:52;;;;;;;0.40;0.23;;;;;;;6.37;100.00;99333.75;5073360;28;20469;-76
2022/01/04 05:09:18;;;;;;;0.40;0.20;;;;;;;6.32;100.00;99326.63;5072995;28;20825;-76
2022/01/04 05:11:46;;;;;;;0.40;0.30;;;;;;;6.25;100.00;99326.25;5073340;28;20444;-76
2022/01/04 05:14:13;;;;;;;0.40;0.30;;;;;;;6.26;100.00;99328.63;5073215;28;20583;-76
2022/01/04 05:16:39;;;;;;;0.40;0.30;;;;;;;6.17;100.00;99319.69;5073210;28;20481;-76
2022/01/04 05:19:06;;;;;;;0.40;0.30;;;;;;;6.12;100.00;99316.31;5073517;28;20433;-76
2022/01/04 05:21:33;;;;;;;0.40;0.30;;;;;;;5.99;100.00;99302.63;5073234;28;20855;-76
2022/01/04 05:23:59;;;;;;;0.40;0.30;;;;;;;6.04;100.00;99302.50;5073104;28;20469;-76
2022/01/04 05:26:26;;;;;;;0.40;0.20;;;;;;;6.00;100.00;99303.41;5072892;28;20960;-76
2022/01/04 05:28:54;;;;;;;0.40;0.30;;;;;;;5.92;100.00;99301.44;5073176;28;20444;-76
2022/01/04 05:31:20;;;;;;;0.40;0.30;;;;;;;5.95;100.00;99292.75;5073129;28;20445;-76
2022/01/04 05:33:47;;;;;;;0.40;0.30;;;;;;;5.94;100.00;99294.66;5072620;28;20480;-76
2022/01/04 05:36:13;;;;;;;0.40;0.20;;;;;;;5.99;100.00;99296.44;5073248;28;20477;-77
2022/01/04 05:38:40;;;;;;;0.40;0.30;;;;;;;6.00;100.00;99281.91;5073138;28;20453;-76
2022/01/04 05:41:07;;;;;;;0.40;0.20;;;;;;;6.01;100.00;99281.59;5073129;28;20545;-76
2022/01/04 05:43:34;;;;;;;0.40;0.30;;;;;;;6.03;100.00;99284.78;5073477;28;20488;-76
2022/01/04 05:46:02;;;;;;;0.40;0.20;;;;;;;5.97;100.00;99275.22;5072997;28;20532;-73
2022/01/04 05:48:28;;;;;;;0.40;0.20;;;;;;;6.01;100.00;99278.13;5073114;28;20445;-73
2022/01/04 05:50:55;;;;;;;0.40;0.27;;;;;;;5.96;100.00;99270.16;5072910;28;20462;-74
2022/01/04 05:53:21;;;;;;;0.40;0.30;;;;;;;5.90;100.00;99272.16;5072852;28;20469;-73
2022/01/04 05:55:48;;;;;;;0.40;0.30;;;;;;;5.94;100.00;99265.09;5072791;28;20531;-74
2022/01/04 05:58:14;;;;;;;0.40;0.30;;;;;;;6.00;100.00;99263.09;5072827;28;20483;-73
2022/01/04 06:00:41;;;;;;;0.40;0.30;;;;;;;6.03;100.00;99257.13;5074258;28;20429;-73
2022/01/04 06:03:08;;;;;;;0.40;0.30;;;;;;;5.96;100.00;99248.66;5076553;28;20468;-74
2022/01/04 06:05:35;;;;;;;0.40;0.30;;;;;;;5.96;100.00;99232.53;5076663;28;20437;-70
2022/01/04 06:08:02;;;;;;;1.43;1.33;;;;;;;6.00;100.00;99222.78;5076595;28;20441;-71
2022/01/04 06:10:36;;;;;;;0.40;0.20;;;;;;;5.96;100.00;99219.09;5076384;28;20950;-73
2022/01/04 06:15:46;;;;;;;0.40;0.30;;;;;;;5.97;100.00;99212.63;5076260;28;20480;-73
2022/01/04 06:18:13;;;;;;;0.40;0.30;;;;;;;6.03;100.00;99216.81;5076064;28;20445;-73
2022/01/04 06:20:40;;;;;;;0.40;0.20;;;;;;;5.98;100.00;99214.22;5076574;28;20441;-73
2022/01/04 06:23:06;;;;;;;0.40;0.20;;;;;;;5.93;100.00;99219.69;5076238;28;20510;-74
2022/01/04 06:25:33;;;;;;;0.40;0.30;;;;;;;6.01;100.00;99203.66;5075953;28;20444;-74
2022/01/04 06:27:59;;;;;;;0.40;0.30;;;;;;;6.10;100.00;99209.09;5076254;28;20487;-74
2022/01/04 06:30:26;;;;;;;0.50;0.30;;;;;;;6.15;100.00;99203.59;5076211;28;20445;-73
2022/01/04 06:32:53;;;;;;;0.40;0.20;;;;;;;6.21;100.00;99205.06;5075817;28;20483;-74
2022/01/04 06:35:21;;;;;;;0.40;0.30;;;;;;;6.29;100.00;99198.16;5075720;28;20990;-74
2022/01/04 06:37:49;;;;;;;0.40;0.30;;;;;;;6.32;100.00;99198.31;5075745;28;20860;-74
2022/01/04 06:40:15;;;;;;;0.40;0.30;;;;;;;6.32;100.00;99192.94;5075745;28;20441;-74
2022/01/04 06:42:42;;;;;;;0.40;0.30;;;;;;;6.39;100.00;99191.75;5075879;28;20495;-74
2022/01/04 06:45:10;;;;;;;0.40;0.30;;;;;;;6.46;100.00;99179.44;5075925;28;20490;-74
2022/01/04 06:47:37;;;;;;;0.40;0.20;;;;;;;6.53;100.00;99187.06;5075519;28;21013;-74
2022/01/04 06:50:04;;;;;;;0.40;0.30;;;;;;;6.61;100.00;99177.47;5075876;28;20487;-74
2022/01/04 06:52:32;;;;;;;0.40;0.30;;;;;;;6.71;100.00;99174.50;5075771;28;20482;-74
2022/01/04 06:54:58;;;;;;;0.40;0.30;;;;;;;6.76;100.00;99175.16;5075753;28;20468;-74
2022/01/04 06:57:25;;;;;;;0.40;0.30;;;;;;;6.82;100.00;99173.91;5075637;28;20480;-73
2022/01/04 06:59:51;;;;;;;0.40;0.30;;;;;;;6.89;100.00;99176.16;5075659;28;20441;-73
2022/01/04 07:02:17;;;;;;;0.40;0.30;;;;;;;6.97;100.00;99174.59;5075592;28;20823;-74
2022/01/04 07:04:44;;;;;;;0.40;0.30;;;;;;;7.00;100.00;99172.09;5075611;28;20453;-74
2022/01/04 07:07:10;;;;;;;0.77;0.77;;;;;;;7.07;100.00;99172.41;5075552;28;20437;-73
2022/01/04 07:09:38;;;;;;;0.40;0.30;;;;;;;7.11;100.00;99171.78;5075432;28;20452;-74
2022/01/04 07:12:05;;;;;;;0.40;0.27;;;;;;;7.14;100.00;99168.47;5075107;28;20456;-73
2022/01/04 07:14:32;;;;;;;0.40;0.30;;;;;;;7.12;100.00;99170.69;5075175;28;20445;-73
2022/01/04 07:16:58;;;;;;;0.40;0.30;;;;;;;7.09;100.00;99177.50;5074828;28;21012;-73
2022/01/04 07:19:24;;;;;;;0.40;0.30;;;;;;;7.15;100.00;99170.84;5075171;28;20444;-73
2022/01/04 07:21:51;;;;;;;0.40;0.30;;;;;;;7.15;100.00;99181.63;5075133;28;20445;-73
2022/01/04 07:24:17;;;;;;;0.40;0.30;;;;;;;7.18;100.00;99181.00;5075095;28;20872;-73
2022/01/04 07:26:45;;;;;;;0.40;0.30;;;;;;;7.20;100.00;99178.78;5074966;28;20442;-74
2022/01/04 07:29:11;;;;;;;0.40;0.30;;;;;;;7.16;100.00;99174.34;5075096;28;20437;-74
2022/01/04 07:31:38;;;;;;;0.40;0.20;;;;;;;7.15;100.00;99170.06;5075128;28;20468;-74
2022/01/04 07:34:04;;;;;;;0.40;0.20;;;;;;;7.22;100.00;99159.63;5074848;28;20477;-74
2022/01/04 07:36:31;;;;;;;0.40;0.30;;;;;;;7.25;100.00;99159.00;5074888;28;20481;-74
2022/01/04 07:38:58;;;;;;;0.40;0.30;;;;;;;7.24;100.00;99157.41;5074885;28;20539;-73
2022/01/04 07:41:25;;;;;;;0.40;0.20;;;;;;;7.30;100.00;99156.97;5074557;28;20453;-73
2022/01/04 07:43:52;;;;;;;0.40;0.20;;;;;;;7.29;100.00;99155.34;5074674;28;20472;-74
2022/01/04 07:46:19;;;;;;;0.40;0.30;;;;;;;7.31;100.00;99158.53;5074536;28;20433;-73
2022/01/04 07:48:47;;;;;;;0.40;0.30;;;;;;;7.34;100.00;99157.09;5074783;28;20510;-74
2022/01/04 07:51:13;;;;;;;0.40;0.30;;;;;;;7.36;100.00;99160.28;5074671;28;21044;-73
2022/01/04 07:53:39;;;;;;;0.40;0.30;;;;;;;7.42;100.00;99163.63;5074591;28;20461;-74
2022/01/04 07:56:06;;;;;;;0.40;0.30;;;;;;;7.45;100.00;99154.91;5074721;28;20480;-74
2022/01/04 07:58:32;;;;;;;0.40;0.30;;;;;;;7.46;100.00;99138.44;5074491;28;20448;-71
2022/01/04 08:01:01;;;;;;;0.40;0.30;;;;;;;7.46;100.00;99140.34;5074183;28;21064;-73
2022/01/04 08:03:27;;;;;;;0.40;0.30;;;;;;;7.46;100.00;99143.03;5074362;28;20450;-74
2022/01/04 08:05:54;;;;;;;0.87;0.87;;;;;;;7.48;100.00;99130.84;5074361;28;20444;-71
2022/01/04 08:08:20;;;;;;;0.40;0.30;;;;;;;7.53;100.00;99124.50;5074362;28;20453;-74
2022/01/04 08:10:48;;;;;;;0.40;0.30;;;;;;;7.58;100.00;99124.34;5074285;28;20449;-73
2022/01/04 08:13:14;;;;;;;0.40;0.30;;;;;;;7.64;100.00;99125.75;5074413;28;20461;-72
2022/01/04 08:15:41;;;;;;;2.10;2.00;;;;;;;7.62;100.00;99116.41;5073955;28;20491;-73
2022/01/04 08:18:08;;;;;;;0.40;0.30;;;;;;;7.64;100.00;99112.28;5074105;28;20445;-74
2022/01/04 08:20:35;;;;;;;0.40;0.30;;;;;;;7.66;100.00;99118.16;5074094;28;20441;-75
2022/01/04 08:23:02;;;;;;;0.40;0.30;;;;;;;7.72;100.00;99114.19;5073514;28;20465;-73
2022/01/04 08:25:30;;;;;;;0.40;0.30;;;;;;;7.75;100.00;99110.88;5073688;28;20472;-74
2022/01/04 08:27:57;;;;;;;0.40;0.30;;;;;;;7.82;100.00;99113.84;5073918;28;20830;-73
2022/01/04 08:30:23;;;;;;;0.40;0.30;;;;;;;7.86;100.00;99116.69;5073952;28;20449;-74
2022/01/04 08:32:51;;;;;;;0.40;0.30;;;;;;;7.87;100.00;99110.19;5073444;28;20497;-74
2022/01/04 08:35:19;;;;;;;0.40;0.20;;;;;;;7.91;100.00;99110.34;5073806;28;20453;-75
2022/01/04 08:37:45;;;;;;;0.40;0.30;;;;;;;7.97;100.00;99107.19;5073816;28;20485;-75
2022/01/04 08:40:12;;;;;;;0.40;0.30;;;;;;;7.99;100.00;99106.84;5073421;28;20848;-74
2022/01/04 08:42:39;;;;;;;0.40;0.30;;;;;;;8.03;100.00;99099.72;5073621;28;20472;-74
2022/01/04 08:45:08;;;;;;;0.40;0.30;;;;;;;8.06;100.00;99107.16;5073566;28;20817;-74
2022/01/04 08:47:34;;;;;;;0.40;0.30;;;;;;;8.12;100.00;99108.56;5073265;28;20938;-74
2022/01/04 08:50:01;;;;;;;0.40;0.20;;;;;;;8.14;100.00;99103.63;5073342;28;20946;-74
2022/01/04 08:52:29;;;;;;;0.40;0.30;;;;;;;8.17;100.00;99099.53;5073616;28;20461;-74
2022/01/04 08:54:55;;;;;;;0.40;0.30;;;;;;;8.18;100.00;99087.63;5073935;28;20437;-74
2022/01/04 08:57:23;;;;;;;0.40;0.30;;;;;;;8.21;100.00;99092.38;5073472;28;20477;-74
2022/01/04 08:59:54;;;;;;;0.40;0.30;;;;;;;8.25;100.00;99090.63;5073438;28;20437;-74
2022/01/04 09:02:20;;;;;;;0.40;0.30;;;;;;;8.26;100.00;99079.50;5073284;28;20426;-74
2022/01/04 09:04:47;;;;;;;0.40;0.30;;;;;;;8.27;100.00;99072.19;5073256;28;20438;-74
2022/01/04 09:07:13;;;;;;;0.40;0.30;;;;;;;8.32;100.00;99075.53;5073157;28;20445;-74
2022/01/04 09:09:41;;;;;;;0.40;0.30;;;;;;;8.37;100.00;99084.56;5073226;28;20441;-74
2022/01/04 09:12:08;;;;;;;0.40;0.30;;;;;;;8.39;100.00;99076.94;5072798;28;20444;-74
2022/01/04 09:14:43;;;;;;;0.40;0.30;;;;;;;8.40;100.00;99083.91;5072969;28;20444;-75
2022/01/04 09:19:55;;;;;;;0.40;0.30;;;;;;;8.38;100.00;99073.47;5072774;28;20485;-74
2022/01/04 09:22:22;;;;;;;0.40;0.30;;;;;;;8.43;100.00;99064.41;5072896;28;20487;-74
2022/01/04 09:24:50;;;;;;;0.40;0.30;;;;;;;8.44;100.00;99058.66;5073151;28;20547;-71
2022/01/04 09:27:17;;;;;;;0.40;0.23;;;;;;;8.43;100.00;99053.59;5073031;28;20807;-71
2022/01/04 09:29:43;;;;;;;0.40;0.30;;;;;;;8.42;100.00;99060.91;5072959;28;20441;-74
2022/01/04 09:32:13;;;;;;;0.40;0.30;;;;;;;8.44;100.00;99065.97;5072447;28;20973;-74
2022/01/04 09:34:40;;;;;;;0.40;0.30;;;;;;;8.46;100.00;99063.75;5072662;28;20923;-74
2022/01/04 09:37:06;;;;;;;1.90;1.80;;;;;;;8.43;100.00;99057.09;5076790;28;20489;-74
2022/01/04 09:39:33;;;;;;;0.40;0.30;;;;;;;8.38;100.00;99049.19;5077021;28;20441;-74
2022/01/04 09:42:01;;;;;;;0.40;0.30;;;;;;;8.38;100.00;99056.50;5076713;28;20841;-74
2022/01/04 09:44:28;;;;;;;0.40;0.30;;;;;;;8.35;100.00;99047.09;5076590;28;20447;-72
2022/01/04 09:46:55;;;;;;;0.40;0.30;;;;;;;8.27;100.00;99040.59;5077078;28;20452;-74
2022/01/04 09:49:23;;;;;;;0.40;0.27;;;;;;;8.26;100.00;99046.34;5077301;28;20445;-74
2022/01/04 09:51:50;;;;;;;0.40;0.30;;;;;;;8.26;100.00;99033.63;5076942;28;20445;-74
2022/01/04 09:54:22;;;;;;;0.40;0.30;;;;;;;8.25;100.00;99033.97;5076862;28;20456;-74
2022/01/04 09:56:49;;;;;;;0.40;0.30;;;;;;;8.25;100.00;99032.06;5076861;28;20457;-73
2022/01/04 09:59:17;;;;;;;0.40;0.30;;;;;;;8.26;100.00;99030.94;5076406;28;20833;-73
2022/01/04 10:01:45;;;;;;;0.40;0.30;;;;;;;8.25;100.00;99023.97;5073309;28;20441;-72
2022/01/04 10:04:12;;;;;;;0.40;0.30;;;;;;;8.22;100.00;99021.91;5074310;28;20485;-73
2022/01/04 10:06:40;;;;;;;0.40;0.30;;;;;;;8.20;100.00;99007.97;5074537;28;20438;-73
2022/01/04 10:09:11;;;;;;;0.40;0.30;;;;;;;8.17;100.00;98997.03;5073649;28;20445;-70
2022/01/04 10:11:42;;;;;;;0.40;0.20;;;;;;;8.15;100.00;98996.59;5073751;28;20425;-67
2022/01/04 10:17:04;;;;;;;0.40;0.30;;;;;;;8.09;100.00;98987.88;5088697;28;20536;-73
2022/01/04 10:19:32;;;;;;;0.40;0.30;;;;;;;8.08;100.00;98980.91;5088780;28;20440;-72
2022/01/04 10:22:19;;;;;;;0.40;0.30;;;;;;;8.07;100.00;98980.09;5088538;28;20444;-72
2022/01/04 10:24:48;;;;;;;0.40;0.20;;;;;;;8.04;100.00;98974.56;5067840;28;20446;-73
2022/01/04 10:27:30;;;;;;;0.40;0.30;;;;;;;8.01;100.00;98964.41;5068700;28;20438;-72
2022/01/04 10:30:18;;;;;;;0.40;0.30;;;;;;;8.04;100.00;98969.97;5069142;28;20448;-71
2022/01/04 10:32:52;;;;;;;0.40;0.30;;;;;;;7.99;100.00;98967.44;5067447;28;20477;-70
2022/01/04 10:35:37;;;;;;;0.40;0.30;;;;;;;7.98;100.00;98960.47;5068321;28;20844;-67
2022/01/04 10:38:14;;;;;;;0.40;0.30;;;;;;;7.99;100.00;98955.88;5067642;28;20491;-67
2022/01/04 10:40:43;;;;;;;0.73;0.73;;;;;;;8.00;100.00;98954.75;5068425;28;20429;-70
2022/01/04 10:43:13;;;;;;;0.40;0.20;;;;;;;7.97;100.00;98958.09;5067897;28;20477;-69
2022/01/04 10:45:42;;;;;;;0.40;0.20;;;;;;;7.96;100.00;98956.50;5068360;28;20528;-70
2022/01/04 10:48:21;;;;;;;0.40;0.30;;;;;;;7.94;100.00;98956.06;5068467;28;20453;-70
2022/01/04 10:50:50;;;;;;;0.40;0.30;;;;;;;7.92;100.00;98959.06;5066938;28;20431;-68
2022/01/04 10:53:24;;;;;;;0.40;0.30;;;;;;;7.92;100.00;98958.28;5066344;28;20470;-70
2022/01/04 10:55:55;;;;;;;0.40;0.30;;;;;;;7.90;100.00;98966.69;5067578;28;20469;-70
2022/01/04 10:58:27;;;;;;;0.40;0.30;;;;;;;7.90;100.00;98955.13;5069460;28;20457;-71
2022/01/04 11:00:56;;;;;;;0.40;0.30;;;;;;;7.88;100.00;98952.75;5069661;28;20426;-69
2022/01/04 11:03:26;;;;;;;0.40;0.30;;;;;;;7.86;100.00;98948.78;5068235;28;20464;-70
2022/01/04 11:05:54;;;;;;;0.40;0.30;;;;;;;7.84;100.00;98946.44;5069714;28;20441;-70
2022/01/04 11:08:20;;;;;;;0.40;0.20;;;;;;;7.89;100.00;98942.75;5069649;28;20491;-68
2022/01/04 11:10:49;;;;;;;0.40;0.30;;;;;;;7.89;100.00;98946.25;5069462;28;20449;-69
2022/01/04 11:13:15;;;;;;;0.40;0.30;;;;;;;7.87;100.00;98944.97;5069355;28;20465;-69
2022/01/04 11:15:42;;;;;;;0.40;0.27;;;;;;;7.87;100.00;98951.16;5068994;28;20481;-69
2022/01/04 11:18:09;;;;;;;0.40;0.30;;;;;;;7.89;100.00;98946.25;5069097;28;20934;-69
2022/01/04 11:20:39;;;;;;;0.40;0.30;;;;;;;7.89;100.00;98940.06;5068776;28;20484;-69
2022/01/04 11:23:07;;;;;;;0.40;0.30;;;;;;;7.89;100.00;98931.97;5069228;28;20469;-72
2022/01/04 11:25:34;;;;;;;0.40;0.20;;;;;;;7.91;100.00;98940.53;5069217;28;20429;-72
2022/01/04 11:28:01;;;;;;;0.40;0.30;;;;;;;7.89;100.00;98924.69;5058014;28;20449;-72
2022/01/04 11:30:36;;;;;;;0.40;0.30;;;;;;;7.91;100.00;98914.34;5055965;28;20450;-72
2022/01/04 11:33:08;;;;;;;0.40;0.20;;;;;;;7.95;100.00;98904.50;5055925;28;20469;-72
2022/01/04 11:35:34;;;;;;;0.40;0.30;;;;;;;7.97;100.00;98901.47;5055837;28;20588;-72
2022/01/04 11:38:02;;;;;;;0.40;0.20;;;;;;;7.98;100.00;98900.38;5055873;28;20446;-73
2022/01/04 11:40:34;;;;;;;0.40;0.30;;;;;;;7.98;100.00;98897.69;5055901;28;20447;-73
2022/01/04 11:43:02;;;;;;;0.40;0.30;;;;;;;7.98;100.00;98901.16;5055217;28;20797;-73
2022/01/04 11:45:40;;;;;;;0.40;0.30;;;;;;;8.08;100.00;98905.38;5054781;28;20442;-73